createdAt,value
2019-03-09T00:00:34.776Z,9.35
2019-03-09T00:04:04.828Z,8.75
2019-03-09T00:07:34.910Z,7.76
2019-03-09T00:11:05.002Z,7.65
2019-03-09T00:14:34.984Z,10.59
2019-03-09T00:18:05.086Z,9.79
2019-03-09T00:21:36.809Z,9.93
2019-03-09T00:25:14.361Z,9.49
2019-03-09T00:28:50.833Z,9.89
2019-03-09T00:32:23.435Z,7.01
2019-03-09T00:35:53.507Z,7.92
2019-03-09T00:39:23.588Z,9.45
2019-03-09T00:42:53.644Z,9.46
2019-03-09T00:46:23.734Z,10.07
2019-03-09T00:49:53.845Z,9.19
2019-03-09T00:53:23.887Z,10.04
2019-03-09T00:56:53.929Z,11.57
2019-03-09T01:00:24.001Z,9.76
2019-03-09T01:03:54.174Z,9.21
2019-03-09T01:07:24.245Z,12.05
2019-03-09T01:10:54.277Z,9.85
2019-03-09T01:14:24.478Z,11.68
2019-03-09T01:17:54.531Z,11.88
2019-03-09T01:21:24.733Z,12.32
2019-03-09T01:24:55.875Z,11.72
2019-03-09T01:28:25.927Z,11.36
2019-03-09T01:31:55.959Z,11.64
2019-03-09T01:35:26.187Z,10.36
2019-03-09T01:38:56.183Z,9.93
2019-03-09T01:42:26.320Z,10.33
2019-03-09T01:45:56.361Z,11.11
2019-03-09T01:49:26.399Z,11.61
2019-03-09T01:52:56.520Z,10.99
2019-03-09T01:56:26.642Z,9.36
2019-03-09T01:59:56.654Z,12.32
2019-03-09T02:00:17.408Z,12.92
2019-03-09T02:03:47.437Z,11.91
2019-03-09T02:07:17.429Z,11.21
2019-03-09T02:10:47.531Z,12.32
2019-03-09T02:14:17.614Z,11.12
2019-03-09T02:17:47.742Z,12.64
2019-03-09T02:21:17.797Z,12.9
2019-03-09T02:24:47.939Z,13.34
2019-03-09T02:28:18.921Z,11.59
2019-03-09T02:31:48.948Z,9.29
2019-03-09T02:35:19.005Z,11.76
2019-03-09T02:39:00.808Z,12
2019-03-09T02:42:30.913Z,12.35
2019-03-09T02:46:00.974Z,12.62
2019-03-09T02:49:31.056Z,11.75
2019-03-09T02:53:01.016Z,12.16
2019-03-09T02:56:31.078Z,12.18
2019-03-09T03:00:01.778Z,11.34
2019-03-09T03:03:32.112Z,12.81
2019-03-09T03:07:02.382Z,10.44
2019-03-09T03:10:32.515Z,11.04
2019-03-09T03:14:02.658Z,11.89
2019-03-09T03:17:32.660Z,13.09
2019-03-09T03:21:02.858Z,13
2019-03-09T03:24:33.064Z,10.85
2019-03-09T03:28:03.106Z,10.79
2019-03-09T03:31:33.239Z,12.7
2019-03-09T03:35:04.065Z,12.4
2019-03-09T03:38:34.082Z,11.91
2019-03-09T03:42:04.220Z,12.7
2019-03-09T03:45:34.316Z,11.55
2019-03-09T03:49:04.411Z,11.38
2019-03-09T03:52:34.560Z,12.84
2019-03-09T03:56:04.689Z,10.73
2019-03-09T03:59:34.796Z,11.78
2019-03-09T04:00:17.043Z,13.1
2019-03-09T04:03:47.208Z,13.47
2019-03-09T04:07:17.255Z,12.12
2019-03-09T04:10:47.760Z,9.49
2019-03-09T04:14:17.812Z,8.41
2019-03-09T04:17:47.874Z,12.25
2019-03-09T04:21:18.071Z,13.1
2019-03-09T04:24:48.339Z,12.7
2019-03-09T04:28:18.372Z,12.4
2019-03-09T04:31:49.403Z,13.41
2019-03-09T04:35:19.397Z,12.49
2019-03-09T04:38:49.406Z,12.35
2019-03-09T04:42:19.437Z,12.14
2019-03-09T04:45:49.529Z,11.41
2019-03-09T04:49:19.621Z,11.56
2019-03-09T04:52:49.783Z,6.94
2019-03-09T04:56:19.827Z,8.26
2019-03-09T04:59:49.888Z,11.88
2019-03-09T05:03:20.039Z,11.46
2019-03-09T05:06:50.121Z,10.71
2019-03-09T05:10:26.956Z,11.01
2019-03-09T05:14:00.546Z,11.7
2019-03-09T05:17:30.638Z,12.05
2019-03-09T05:21:00.739Z,12
2019-03-09T05:24:30.759Z,11.96
2019-03-09T05:28:00.840Z,9.03
2019-03-09T05:31:30.846Z,12.09
2019-03-09T05:35:01.877Z,10.93
2019-03-09T05:38:32.059Z,11.19
2019-03-09T05:42:02.121Z,9.43
2019-03-09T05:45:32.094Z,9.89
2019-03-09T05:49:02.196Z,11.43
2019-03-09T05:52:33.342Z,10.7
2019-03-09T05:56:03.440Z,12.12
2019-03-09T05:59:33.483Z,13.21
2019-03-09T06:00:16.632Z,13.32
2019-03-09T06:03:46.714Z,12.57
2019-03-09T06:07:16.798Z,11.36
2019-03-09T06:10:46.822Z,11.85
2019-03-09T06:14:16.982Z,11.12
2019-03-09T06:17:47.013Z,13.32
2019-03-09T06:21:16.958Z,11.91
2019-03-09T06:24:47.060Z,13.16
2019-03-09T06:28:17.031Z,13.04
2019-03-09T06:33:16.182Z,13.95
2019-03-09T06:36:55.487Z,12.07
2019-03-09T06:40:25.526Z,12.48
2019-03-09T06:43:55.558Z,11.12
2019-03-09T06:47:25.620Z,11.74
2019-03-09T06:50:55.632Z,6.95
2019-03-09T06:54:25.744Z,12.6
2019-03-09T06:57:55.836Z,9.53
2019-03-09T07:01:25.971Z,14.05
2019-03-09T07:04:56.061Z,11.64
2019-03-09T07:08:26.175Z,14.16
2019-03-09T07:11:56.256Z,16.23
2019-03-09T07:15:28.749Z,14.75
2019-03-09T07:18:58.730Z,12.2
2019-03-09T07:22:28.763Z,13
2019-03-09T07:25:58.900Z,12.82
2019-03-09T07:29:28.810Z,12.01
2019-03-09T07:32:58.907Z,11.64
2019-03-09T07:36:28.970Z,10.26
2019-03-09T07:40:00.032Z,9.44
2019-03-09T07:43:30.167Z,10.56
2019-03-09T07:47:00.177Z,9.97
2019-03-09T07:50:30.323Z,9.44
2019-03-09T07:54:00.360Z,10.46
2019-03-09T07:57:30.402Z,11.04
2019-03-09T08:00:17.626Z,13.72
2019-03-09T08:03:47.696Z,12.94
2019-03-09T08:07:17.644Z,11.11
2019-03-09T08:10:47.651Z,10.93
2019-03-09T08:14:17.733Z,13.88
2019-03-09T08:17:47.785Z,12.28
2019-03-09T08:21:17.887Z,11.35
2019-03-09T08:24:48.001Z,10.36
2019-03-09T08:28:17.943Z,11.26
2019-03-09T08:31:48.024Z,11.59
2019-03-09T08:35:18.747Z,10.18
2019-03-09T08:38:48.847Z,12.35
2019-03-09T08:42:19.932Z,9.8
2019-03-09T08:45:49.924Z,11.25
2019-03-09T08:49:19.969Z,9.84
2019-03-09T08:52:50.214Z,10.11
2019-03-09T08:56:20.333Z,8.99
2019-03-09T08:59:50.506Z,11.89
2019-03-09T09:03:20.594Z,10.54
2019-03-09T09:06:50.728Z,10.3
2019-03-09T09:10:20.795Z,12.44
2019-03-09T09:13:50.880Z,11.52
2019-03-09T09:17:21.026Z,10.85
2019-03-09T09:20:51.225Z,10.68
2019-03-09T09:24:21.228Z,13.05
2019-03-09T09:27:52.204Z,11.41
2019-03-09T09:31:22.472Z,12.22
2019-03-09T09:34:52.574Z,12.47
2019-03-09T09:38:22.596Z,13.14
2019-03-09T09:41:52.720Z,11.96
2019-03-09T09:45:24.491Z,13.24
2019-03-09T09:48:54.596Z,13.48
2019-03-09T09:52:24.623Z,12.31
2019-03-09T09:55:54.820Z,13.65
2019-03-09T09:59:24.871Z,11.38
2019-03-09T10:00:18.931Z,13.76
2019-03-09T10:03:48.969Z,12.68
2019-03-09T10:07:19.046Z,10.12
2019-03-09T10:10:49.258Z,12.43
2019-03-09T10:14:19.331Z,12.65
2019-03-09T10:17:49.554Z,11.55
2019-03-09T10:21:19.505Z,13.31
2019-03-09T10:24:49.627Z,13.05
2019-03-09T10:28:19.760Z,12.98
2019-03-09T10:31:49.892Z,11.71
2019-03-09T10:35:19.974Z,9.99
2019-03-09T10:38:50.017Z,11.38
2019-03-09T10:42:20.065Z,11
2019-03-09T10:45:51.122Z,12.96
2019-03-09T10:49:21.134Z,10.21
2019-03-09T10:52:51.276Z,10.72
2019-03-09T10:56:21.379Z,10.49
2019-03-09T10:59:51.501Z,11.01
2019-03-09T11:03:21.584Z,10.38
2019-03-09T11:06:51.717Z,9.64
2019-03-09T11:10:21.911Z,9.31
2019-03-09T11:13:52.328Z,9.54
2019-03-09T11:17:22.424Z,9.96
2019-03-09T11:20:52.497Z,9.62
2019-03-09T11:24:22.615Z,9.04
2019-03-09T11:27:52.851Z,10.24
2019-03-09T11:31:22.884Z,9.8
2019-03-09T11:34:53.087Z,9.18
2019-03-09T11:38:23.119Z,9.4
2019-03-09T11:41:53.231Z,9.21
2019-03-09T11:45:23.265Z,8.07
2019-03-09T11:48:54.357Z,8.89
2019-03-09T11:52:24.531Z,9.51
2019-03-09T11:55:54.761Z,10.44
2019-03-09T11:59:24.855Z,7.43
2019-03-09T12:00:20.225Z,9.51
2019-03-09T12:03:50.258Z,9.76
2019-03-09T12:07:20.300Z,8.36
2019-03-09T12:10:50.416Z,8.3
2019-03-09T12:14:20.455Z,8.32
2019-03-09T12:17:50.920Z,8.74
2019-03-09T12:21:21.163Z,8.74
2019-03-09T12:24:52.103Z,10.29
2019-03-09T12:28:22.185Z,6.19
2019-03-09T12:31:52.288Z,7.25
2019-03-09T12:35:22.350Z,5.36
2019-03-09T12:38:52.523Z,6.01
2019-03-09T12:42:22.674Z,5.86
2019-03-09T12:45:52.818Z,7.29
2019-03-09T12:49:22.990Z,7.88
2019-03-09T12:52:53.096Z,6.41
2019-03-09T12:56:23.436Z,8.11
2019-03-09T12:59:53.468Z,8.94
2019-03-09T13:03:23.542Z,7.41
2019-03-09T13:06:53.654Z,8.18
2019-03-09T13:10:23.915Z,7.12
2019-03-09T13:13:54.078Z,6.51
2019-03-09T13:17:24.163Z,7.49
2019-03-09T13:20:54.223Z,6.11
2019-03-09T13:24:24.378Z,4.61
2019-03-09T13:27:54.488Z,6.32
2019-03-09T13:31:24.621Z,4.93
2019-03-09T13:34:54.693Z,5.06
2019-03-09T13:38:24.806Z,4.76
2019-03-09T13:41:54.934Z,5.65
2019-03-09T13:45:25.012Z,4.97
2019-03-09T13:48:55.184Z,7.5
2019-03-09T13:52:26.257Z,9.05
2019-03-09T13:55:56.469Z,8.18
2019-03-09T13:59:27.414Z,8.5
2019-03-09T14:00:17.202Z,9.16
2019-03-09T14:03:47.225Z,12.21
2019-03-09T14:07:17.308Z,10.65
2019-03-09T14:10:47.440Z,11
2019-03-09T14:14:17.432Z,7.65
2019-03-09T14:17:47.610Z,10.71
2019-03-09T14:21:17.767Z,11.65
2019-03-09T14:24:47.850Z,6.71
2019-03-09T14:28:17.839Z,7.97
2019-03-09T14:31:47.987Z,8.96
2019-03-09T14:35:18.079Z,8.75
2019-03-09T14:38:48.170Z,8.23
2019-03-09T14:42:18.135Z,10.56
2019-03-09T14:45:48.146Z,19.19
2019-03-09T14:49:18.208Z,10.57
2019-03-09T14:52:49.250Z,22.8
2019-03-09T14:56:19.273Z,22.6
2019-03-09T14:59:51.022Z,15.34
2019-03-09T15:03:21.188Z,12.09
2019-03-09T15:06:51.341Z,9.91
2019-03-09T15:10:21.492Z,8.15
2019-03-09T15:13:52.515Z,9.69
2019-03-09T15:17:22.748Z,12.15
2019-03-09T15:20:52.862Z,9.16
2019-03-09T15:24:22.853Z,21.36
2019-03-09T15:27:53.566Z,25.58
2019-03-09T15:31:23.658Z,25.35
2019-03-09T15:34:53.722Z,24.44
2019-03-09T15:38:23.793Z,13.09
2019-03-09T15:41:53.937Z,8.38
2019-03-09T15:45:24.067Z,8.74
2019-03-09T15:48:54.130Z,9.85
2019-03-09T15:52:24.218Z,9.22
2019-03-09T15:55:55.985Z,9.86
2019-03-09T15:59:26.117Z,8.56
2019-03-09T16:00:17.650Z,10.99
2019-03-09T16:03:47.780Z,8.55
2019-03-09T16:07:17.812Z,11.25
2019-03-09T16:10:47.954Z,7.45
2019-03-09T16:14:18.074Z,5.25
2019-03-09T16:17:48.169Z,5.59
2019-03-09T16:21:18.302Z,15.29
2019-03-09T16:24:48.484Z,15.17
2019-03-09T16:28:18.576Z,17.6
2019-03-09T16:31:48.728Z,20.1
2019-03-09T16:35:18.833Z,14.29
2019-03-09T16:38:48.893Z,14.28
2019-03-09T16:42:18.965Z,10.51
2019-03-09T16:45:49.117Z,17.31
2019-03-09T16:49:19.139Z,17.05
2019-03-09T16:52:49.293Z,22.49
2019-03-09T16:56:20.424Z,18.69
2019-03-09T16:59:50.696Z,24.62
2019-03-09T17:03:20.668Z,15.71
2019-03-09T17:06:50.697Z,9.24
2019-03-09T17:10:20.772Z,11.3
2019-03-09T17:13:50.824Z,7.12
2019-03-09T17:17:22.856Z,6.41
2019-03-09T17:20:53.008Z,5.76
2019-03-09T17:24:23.011Z,5.72
2019-03-09T17:27:53.225Z,4.95
2019-03-09T17:31:23.245Z,4.44
2019-03-09T17:34:53.437Z,5.11
2019-03-09T17:38:23.519Z,5.25
2019-03-09T17:41:53.544Z,5.89
2019-03-09T17:45:23.586Z,9.49
2019-03-09T17:48:53.726Z,6.97
2019-03-09T17:52:23.788Z,6.85
2019-03-09T17:55:53.890Z,7.04
2019-03-09T17:59:24.926Z,6.51
2019-03-09T18:00:19.383Z,6.53
2019-03-09T18:03:49.425Z,9.45
2019-03-09T18:07:19.487Z,6.29
2019-03-09T18:10:52.959Z,7.99
2019-03-09T18:14:23.041Z,7.39
2019-03-09T18:17:53.223Z,6.8
2019-03-09T18:21:23.335Z,6.44
2019-03-09T18:24:53.347Z,8.8
2019-03-09T18:28:23.399Z,7.28
2019-03-09T18:31:53.432Z,6.16
2019-03-09T18:35:23.436Z,5.9
2019-03-09T18:38:53.546Z,6.46
2019-03-09T18:42:23.638Z,6.54
2019-03-09T18:45:53.640Z,7.8
2019-03-09T18:49:23.668Z,5.99
2019-03-09T18:52:53.735Z,7.55
2019-03-09T18:56:23.677Z,9
2019-03-09T18:59:55.512Z,9.54
2019-03-09T19:03:25.601Z,6.76
2019-03-09T19:06:55.664Z,5.89
2019-03-09T19:10:25.836Z,9.55
2019-03-09T19:13:55.948Z,5.72
2019-03-09T19:17:25.848Z,6.46
2019-03-09T19:20:56.002Z,6.21
2019-03-09T19:24:26.019Z,6.54
2019-03-09T19:27:56.211Z,6.51
2019-03-09T19:31:26.299Z,5.56
2019-03-09T19:34:56.411Z,6.24
2019-03-09T19:38:26.523Z,6.5
2019-03-09T19:41:56.656Z,6.85
2019-03-09T19:45:26.684Z,6.81
2019-03-09T19:48:56.741Z,6.14
2019-03-09T19:52:26.822Z,3.17
2019-03-09T19:55:57.074Z,6.04
2019-03-09T19:59:27.066Z,6.66
2019-03-09T20:00:18.586Z,5.09
2019-03-09T20:03:48.709Z,8.61
2019-03-09T20:07:18.781Z,5.09
2019-03-09T20:10:48.904Z,4.56
2019-03-09T20:14:18.995Z,6.26
2019-03-09T20:17:49.178Z,6.12
2019-03-09T20:21:19.290Z,7.56
2019-03-09T20:24:49.390Z,8.25
2019-03-09T20:28:19.460Z,7.95
2019-03-09T20:31:49.456Z,7.11
2019-03-09T20:35:19.530Z,7.75
2019-03-09T20:38:49.662Z,6.22
2019-03-09T20:42:19.693Z,7.39
2019-03-09T20:45:49.825Z,6.12
2019-03-09T20:49:19.787Z,6.41
2019-03-09T20:52:50.139Z,6.14
2019-03-09T20:56:20.233Z,6.78
2019-03-09T20:59:50.313Z,5.79
2019-03-09T21:03:22.928Z,5.85
2019-03-09T21:06:53.208Z,8.7
2019-03-09T21:10:23.351Z,4.55
2019-03-09T21:13:53.470Z,7.42
2019-03-09T21:17:23.508Z,6.21
2019-03-09T21:20:53.472Z,6.68
2019-03-09T21:24:23.569Z,6.67
2019-03-09T21:27:53.746Z,5.91
2019-03-09T21:31:23.863Z,5.86
2019-03-09T21:34:53.987Z,7.44
2019-03-09T21:38:23.970Z,10.3
2019-03-09T21:41:54.170Z,10.59
2019-03-09T21:45:24.195Z,11.7
2019-03-09T21:48:54.344Z,10.75
2019-03-09T21:52:24.275Z,8.94
2019-03-09T21:55:54.357Z,10.15
2019-03-09T21:59:24.331Z,10.25
2019-03-09T22:00:17.401Z,7.71
2019-03-09T22:03:47.533Z,9.14
2019-03-09T22:07:17.505Z,9.29
2019-03-09T22:10:47.537Z,7.62
2019-03-09T22:14:17.539Z,7.55
2019-03-09T22:17:47.692Z,6.62
2019-03-09T22:21:17.844Z,8.08
2019-03-09T22:24:47.944Z,7.65
2019-03-09T22:28:17.977Z,7.95
2019-03-09T22:31:48.049Z,7.64
2019-03-09T22:35:18.020Z,6.68
2019-03-09T22:38:48.123Z,7.86
2019-03-09T22:42:18.160Z,7.22
2019-03-09T22:45:48.207Z,5.4
2019-03-09T22:49:18.329Z,6.16
2019-03-09T22:52:48.451Z,6.19
2019-03-09T22:56:18.423Z,12.75
2019-03-09T22:59:48.555Z,5.91
2019-03-09T23:03:18.659Z,5.15
2019-03-09T23:06:49.719Z,4.4
2019-03-09T23:10:19.801Z,5.9
2019-03-09T23:13:49.993Z,5.91
2019-03-09T23:17:20.007Z,4.42
2019-03-09T23:20:50.071Z,4.1
2019-03-09T23:24:20.137Z,3.45
2019-03-09T23:27:50.172Z,2.72
2019-03-09T23:31:20.254Z,2.3
2019-03-09T23:34:50.326Z,3.19
2019-03-09T23:38:20.548Z,2.85
2019-03-09T23:41:50.610Z,3.67
2019-03-09T23:45:20.812Z,2.85
2019-03-09T23:48:51.526Z,4.79
2019-03-09T23:52:21.566Z,4.71
2019-03-09T23:55:51.748Z,4.66
2019-03-09T23:59:21.811Z,3.65
